Time;durP1;ratioP1;P1;durP2;ratioP2;P2;SDS_P1;SDS_P2;PMS_P1;PMS_P2;Temp;Humidity;BMP_temperature;BMP_pressure;BME280_temperature;BME280_humidity;BME280_pressure;Samples;Min_cycle;Max_cycle;Signal;HPM_P1;HPM_P2
2021/04/21 00:01:02;;;;;;;1999.90;999.90;;;;;;;11.65;83.65;-18219.09;4941443;29;20208;-33
2021/04/21 00:03:50;;;;;;;1999.90;999.90;;;;;;;11.44;84.55;-18213.63;4941633;29;20356;-34
2021/04/21 00:06:38;;;;;;;1999.90;999.90;;;;;;;11.21;86.00;-18207.63;4941111;29;20260;-34
2021/04/21 00:09:25;;;;;;;1999.90;999.90;;;;;;;11.14;86.59;-18205.75;4941084;29;20213;-35
2021/04/21 00:12:16;;;;;;;1999.90;999.90;;;;;;;11.20;86.62;-18207.34;4941078;29;20207;-35
2021/04/21 00:15:07;;;;;;;1999.90;999.90;;;;;;;11.27;87.22;-18209.22;4941356;29;20201;-35
2021/04/21 00:18:01;;;;;;;1999.90;999.90;;;;;;;11.57;91.46;-18216.97;4941113;29;20380;-36
2021/04/21 00:20:53;;;;;;;1999.90;999.90;;;;;;;11.35;89.90;-18211.38;4941060;29;20204;-34
2021/04/21 00:23:40;;;;;;;1999.90;999.90;;;;;;;10.90;91.46;-18199.47;4941154;29;20664;-35
2021/04/21 00:26:27;;;;;;;1999.90;999.90;;;;;;;11.05;90.02;-18203.34;4941473;29;20200;-33
2021/04/21 00:29:16;;;;;;;1999.90;999.90;;;;;;;11.03;90.89;-18202.94;4941004;29;20204;-36
2021/04/21 00:32:04;;;;;;;1999.90;999.90;;;;;;;11.03;91.15;-18202.81;4940918;29;20256;-37
2021/04/21 00:34:52;;;;;;;1999.90;999.90;;;;;;;10.86;92.87;-18198.41;4940952;29;20295;-37
2021/04/21 00:37:41;;;;;;;1999.90;999.90;;;;;;;10.70;91.44;-18194.25;4940986;29;20220;-36
2021/04/21 00:40:39;;;;;;;1999.90;999.90;;;;;;;10.82;93.19;-18197.31;4940734;29;20204;-39
2021/04/21 00:43:29;;;;;;;1999.90;999.90;;;;;;;10.74;90.84;-18195.06;4940395;29;20601;-39
2021/04/21 00:46:34;;;;;;;1999.90;999.90;;;;;;;10.88;91.84;-18198.94;4940811;29;20220;-36
2021/04/21 00:49:26;;;;;;;1999.90;999.90;;;;;;;10.72;92.78;-18194.66;4940732;29;20196;-39
2021/04/21 00:52:25;;;;;;;1999.90;999.90;;;;;;;10.81;97.01;-18196.94;4940307;29;20619;-35
2021/04/21 00:55:18;;;;;;;1999.90;999.90;;;;;;;10.76;96.35;-18195.59;4940705;29;20508;-34
2021/04/21 00:58:10;;;;;;;1999.90;999.90;;;;;;;10.49;95.05;-18188.50;4939853;29;20244;-34
2021/04/21 01:00:57;;;;;;;1999.90;999.90;;;;;;;10.61;97.50;-18191.72;4940560;29;20209;-38
2021/04/21 01:03:46;;;;;;;1999.90;999.90;;;;;;;10.58;94.50;-18191.03;4940052;29;20311;-35
2021/04/21 01:06:36;;;;;;;1999.90;999.90;;;;;;;10.34;94.55;-18184.63;4939769;29;20256;-37
2021/04/21 01:09:24;;;;;;;1999.90;999.90;;;;;;;10.56;97.09;-18190.38;4939657;29;20196;-36
2021/04/21 01:12:16;;;;;;;1999.90;999.90;;;;;;;10.32;95.67;-18184.09;4940303;29;20205;-39
2021/04/21 01:15:08;;;;;;;1999.90;999.90;;;;;;;10.47;96.38;-18188.09;4940130;29;20213;-34
2021/04/21 01:17:55;;;;;;;1999.90;999.90;;;;;;;10.50;94.11;-18188.91;4940133;29;20232;-35
2021/04/21 01:20:53;;;;;;;1999.90;999.90;;;;;;;10.49;93.43;-18188.63;4939567;29;20761;-37
2021/04/21 01:23:59;;;;;;;1999.90;999.90;;;;;;;10.48;94.38;-18188.25;4939563;29;20205;-32
2021/04/21 01:26:58;;;;;;;1999.90;999.90;;;;;;;10.51;93.86;-18189.16;4939507;29;20481;-31
2021/04/21 01:29:48;;;;;;;1999.90;999.90;;;;;;;10.46;94.83;-18187.84;4939643;29;20197;-32
2021/04/21 01:32:36;;;;;;;1999.90;999.90;;;;;;;10.19;96.50;-18180.75;4940052;29;20318;-36
2021/04/21 01:35:23;;;;;;;1999.90;999.90;;;;;;;10.38;96.49;-18185.69;4939657;29;20229;-36
2021/04/21 01:38:10;;;;;;;1999.90;999.90;;;;;;;10.32;97.70;-18184.09;4939616;29;20299;-34
2021/04/21 01:41:02;;;;;;;1999.90;999.90;;;;;;;10.12;97.75;-18178.88;4939571;29;20284;-34
2021/04/21 01:43:54;;;;;;;1999.90;999.90;;;;;;;10.11;100.00;-18178.47;4939860;29;20505;-34
2021/04/21 01:46:44;;;;;;;1999.90;999.90;;;;;;;10.10;100.00;-18178.19;4939800;29;20495;-33
2021/04/21 01:49:54;;;;;;;1999.90;999.90;;;;;;;9.93;100.00;-18173.91;4939143;29;20208;-37
2021/04/21 01:53:02;;;;;;;1999.90;999.90;;;;;;;9.73;100.00;-18168.44;4939052;29;20270;-32
2021/04/21 01:55:56;;;;;;;1999.90;999.90;;;;;;;9.64;100.00;-18166.28;4939768;29;20208;-38
2021/04/21 01:59:00;;;;;;;1999.90;999.90;;;;;;;9.60;100.00;-18165.22;4939000;29;20404;-35
2021/04/21 02:01:55;;;;;;;1999.90;999.90;;;;;;;9.29;100.00;-18157.06;4939464;29;20494;-36
2021/04/21 02:04:56;;;;;;;1999.90;999.90;;;;;;;9.41;100.00;-18160.13;4939785;29;20591;-35
2021/04/21 02:07:57;;;;;;;1999.90;999.90;;;;;;;9.30;100.00;-18157.19;4939498;29;20617;-35
2021/04/21 02:10:53;;;;;;;1999.90;999.90;;;;;;;9.55;100.00;-18163.75;4938856;29;20488;-36
2021/04/21 02:13:56;;;;;;;1999.90;999.90;;;;;;;9.56;100.00;-18164.03;4939474;29;20297;-38
2021/04/21 02:17:07;;;;;;;1999.90;999.90;;;;;;;9.40;100.00;-18159.75;4939549;29;20226;-34
2021/04/21 02:20:01;;;;;;;1999.90;999.90;;;;;;;9.21;100.00;-18154.91;4938973;29;20208;-34
2021/04/21 02:22:54;;;;;;;1999.90;999.90;;;;;;;9.15;100.00;-18153.19;4939024;29;20311;-38
2021/04/21 02:25:57;;;;;;;1999.90;999.90;;;;;;;9.20;100.00;-18154.66;4938996;29;20204;-35
2021/04/21 02:28:51;;;;;;;1999.90;999.90;;;;;;;9.15;100.00;-18153.31;4939836;29;20344;-38
2021/04/21 02:31:52;;;;;;;1999.90;999.90;;;;;;;8.99;100.00;-18149.16;4939855;29;20206;-36
2021/04/21 02:34:47;;;;;;;1999.90;999.90;;;;;;;8.77;100.00;-18143.28;4939663;29;20678;-36
2021/04/21 02:37:38;;;;;;;1999.90;999.90;;;;;;;8.79;100.00;-18143.81;4938884;29;20201;-34
2021/04/21 02:40:37;;;;;;;1999.90;999.90;;;;;;;8.80;100.00;-18143.94;4939431;29;20341;-36
2021/04/21 02:43:30;;;;;;;1999.90;999.90;;;;;;;8.64;100.00;-18139.78;4938964;29;20345;-35
2021/04/21 02:46:20;;;;;;;1999.90;999.90;;;;;;;8.54;100.00;-18137.13;4938999;29;20199;-33
2021/04/21 02:49:19;;;;;;;1999.90;999.90;;;;;;;8.58;100.00;-18138.31;4938827;29;20197;-35
2021/04/21 02:52:12;;;;;;;1999.90;999.90;;;;;;;8.54;100.00;-18137.13;4939292;29;20352;-33
2021/04/21 02:55:14;;;;;;;1999.90;999.90;;;;;;;8.50;100.00;-18136.19;4939104;29;20204;-36
2021/04/21 02:58:11;;;;;;;1999.90;999.90;;;;;;;8.33;100.00;-18131.63;4938649;29;20311;-35
2021/04/21 03:01:05;;;;;;;1999.90;999.90;;;;;;;8.22;100.00;-18128.66;4939310;29;20341;-34
2021/04/21 03:03:58;;;;;;;1999.90;999.90;;;;;;;8.27;100.00;-18130.00;4938616;29;20312;-37
2021/04/21 03:06:48;;;;;;;1999.90;999.90;;;;;;;8.24;100.00;-18129.22;4939222;29;20322;-35
2021/04/21 03:09:40;;;;;;;1999.90;999.90;;;;;;;7.97;100.00;-18122.09;4938909;29;20337;-33
2021/04/21 03:12:31;;;;;;;1999.90;999.90;;;;;;;8.20;100.00;-18128.28;4938571;29;20484;-36
2021/04/21 03:15:21;;;;;;;1999.90;999.90;;;;;;;8.24;100.00;-18129.22;4938983;29;20273;-34
2021/04/21 03:18:13;;;;;;;1999.90;999.90;;;;;;;8.18;100.00;-18127.75;4938716;29;20231;-35
2021/04/21 03:21:03;;;;;;;1999.90;999.90;;;;;;;8.01;100.00;-18123.19;4938932;29;20200;-38
2021/04/21 03:23:54;;;;;;;1999.90;999.90;;;;;;;8.11;100.00;-18125.72;4941065;29;20204;-35
2021/04/21 03:26:45;;;;;;;1999.90;999.90;;;;;;;8.20;100.00;-18128.28;4942259;29;20208;-36
2021/04/21 03:29:37;;;;;;;1999.90;999.90;;;;;;;8.11;100.00;-18125.72;4942114;29;20627;-33
2021/04/21 03:32:28;;;;;;;1999.90;999.90;;;;;;;8.01;100.00;-18123.19;4942276;29;20265;-33
2021/04/21 03:35:15;;;;;;;1999.90;999.90;;;;;;;7.94;100.00;-18121.44;4942195;29;20204;-35
2021/04/21 03:38:04;;;;;;;1999.90;999.90;;;;;;;8.04;100.00;-18123.97;4941769;29;20257;-34
2021/04/21 03:40:51;;;;;;;1999.90;999.90;;;;;;;7.97;100.00;-18122.09;4941926;29;20300;-32
2021/04/21 03:43:40;;;;;;;1999.90;999.90;;;;;;;7.80;100.00;-18117.69;4942154;29;20619;-34
2021/04/21 03:46:27;;;;;;;1999.90;999.90;;;;;;;7.85;100.00;-18118.88;4942225;29;20217;-34
2021/04/21 03:49:13;;;;;;;1999.90;999.90;;;;;;;7.76;100.00;-18116.47;4942191;29;20260;-35
2021/04/21 03:52:01;;;;;;;1999.90;999.90;;;;;;;7.86;100.00;-18119.28;4941571;29;20356;-35
2021/04/21 03:54:47;;;;;;;1999.90;999.90;;;;;;;7.86;100.00;-18119.28;4941274;29;20496;-34
2021/04/21 03:57:36;;;;;;;1999.90;999.90;;;;;;;7.70;100.00;-18114.88;4940450;29;20739;-34
2021/04/21 04:00:30;;;;;;;1999.90;999.90;;;;;;;7.74;100.00;-18115.94;4941232;29;20207;-34
2021/04/21 04:03:20;;;;;;;1999.90;999.90;;;;;;;7.70;100.00;-18114.88;4941535;29;20205;-39
2021/04/21 04:06:10;;;;;;;1999.90;999.90;;;;;;;7.58;100.00;-18111.94;4941782;29;20196;-43
2021/04/21 04:09:02;;;;;;;1999.90;999.90;;;;;;;7.78;100.00;-18117.03;4941755;29;20314;-44
2021/04/21 04:11:55;;;;;;;1999.90;999.90;;;;;;;7.80;100.00;-18117.69;4941776;29;20213;-43
2021/04/21 04:14:42;;;;;;;1999.90;999.90;;;;;;;7.73;100.00;-18115.81;4941483;29;20212;-44
2021/04/21 04:17:32;;;;;;;1999.90;999.90;;;;;;;7.61;100.00;-18112.59;4941531;29;20204;-44
2021/04/21 04:20:18;;;;;;;1999.90;999.90;;;;;;;7.62;100.00;-18112.84;4941314;29;20200;-44
2021/04/21 04:23:09;;;;;;;1999.90;999.90;;;;;;;7.59;100.00;-18112.19;4941398;29;20204;-44
2021/04/21 04:25:59;;;;;;;1999.90;999.90;;;;;;;7.69;100.00;-18114.59;4941497;29;20204;-44
2021/04/21 04:28:44;;;;;;;1999.90;999.90;;;;;;;7.68;100.00;-18114.47;4941550;29;20608;-44
2021/04/21 04:31:34;;;;;;;1999.90;999.90;;;;;;;7.68;100.00;-18114.47;4941302;29;20264;-42
2021/04/21 04:34:24;;;;;;;1999.90;999.90;;;;;;;7.33;100.00;-18105.09;4940849;29;20204;-41
2021/04/21 04:37:12;;;;;;;1999.90;999.90;;;;;;;7.65;100.00;-18113.66;4941058;29;20204;-41
2021/04/21 04:39:59;;;;;;;1999.90;999.90;;;;;;;7.43;100.00;-18107.91;4940962;29;20261;-41
2021/04/21 04:42:45;;;;;;;1999.90;999.90;;;;;;;7.81;100.00;-18117.94;4941035;29;20208;-41
2021/04/21 04:45:32;;;;;;;1999.90;999.90;;;;;;;8.04;100.00;-18123.97;4940760;29;20279;-41
2021/04/21 04:48:23;;;;;;;1999.90;999.90;;;;;;;8.17;100.00;-18127.47;4940670;29;20236;-41
2021/04/21 04:51:14;;;;;;;1999.90;999.90;;;;;;;8.14;100.00;-18126.53;4940626;29;20738;-41
2021/04/21 04:54:02;;;;;;;1999.90;999.90;;;;;;;8.19;100.00;-18128.00;4940316;29;20276;-42
2021/04/21 04:56:52;;;;;;;1999.90;999.90;;;;;;;8.20;100.00;-18128.28;4940686;29;20244;-42
2021/04/21 04:59:41;;;;;;;1999.90;999.90;;;;;;;8.06;100.00;-18124.53;4940081;29;20204;-42
2021/04/21 05:02:29;;;;;;;1999.90;999.90;;;;;;;8.28;100.00;-18130.28;4939935;29;20209;-42
2021/04/21 05:05:17;;;;;;;1999.90;999.90;;;;;;;8.40;100.00;-18133.50;4939871;29;20205;-42
2021/04/21 05:08:11;;;;;;;1999.90;999.90;;;;;;;8.50;100.00;-18136.19;4939789;29;20299;-44
2021/04/21 05:11:02;;;;;;;1999.90;999.90;;;;;;;8.61;100.00;-18139.00;4939679;29;20304;-44
2021/04/21 05:13:56;;;;;;;1999.90;999.90;;;;;;;8.72;100.00;-18141.81;4941108;29;20204;-45
2021/04/21 05:17:37;;;;;;;1999.90;999.90;;;;;;;8.57;100.00;-18137.91;4958835;29;20630;-45
2021/04/21 05:21:14;;;;;;;1999.90;999.90;;;;;;;8.54;100.00;-18137.25;4957401;29;20207;-44
2021/04/21 05:24:53;;;;;;;1999.90;999.90;;;;;;;9.29;100.00;-18157.06;4957994;29;20689;-44
2021/04/21 05:28:14;;;;;;;1999.90;999.90;;;;;;;9.11;100.00;-18152.09;4957279;29;20208;-44
2021/04/21 05:31:43;;;;;;;1999.90;999.90;;;;;;;9.86;100.00;-18171.91;4942383;28;20210;-44
2021/04/21 05:35:20;;;;;;;1999.90;999.90;;;;;;;10.29;100.00;-18183.28;4958226;29;20340;-44
2021/04/21 05:38:38;;;;;;;1999.90;999.90;;;;;;;11.48;100.00;-18214.56;4956848;28;20221;-44
2021/04/21 05:42:09;;;;;;;1999.90;999.90;;;;;;;12.94;95.75;-18253.16;4958436;29;20208;-44
2021/04/21 05:45:22;;;;;;;1999.90;999.90;;;;;;;14.08;86.01;-18283.03;4957659;28;20209;-45
2021/04/21 05:48:50;;;;;;;1999.90;999.90;;;;;;;14.67;80.79;-18298.63;4958415;29;20517;-44
2021/04/21 05:52:13;;;;;;;1999.90;999.90;;;;;;;15.39;75.30;-18317.53;4957799;29;20251;-44
2021/04/21 05:55:41;;;;;;;1999.90;999.90;;;;;;;15.84;70.84;-18329.41;4939111;29;20295;-45
2021/04/21 05:59:05;;;;;;;1999.90;999.90;;;;;;;15.65;71.15;-18324.34;4938553;29;20249;-44
2021/04/21 06:01:54;;;;;;;1999.90;999.90;;;;;;;15.77;69.62;-18327.53;4938460;29;20204;-44
2021/04/21 06:04:42;;;;;;;1999.90;999.90;;;;;;;15.63;70.09;-18323.66;4937804;29;20205;-44
2021/04/21 06:07:31;;;;;;;1999.90;999.90;;;;;;;15.61;70.41;-18323.28;4938075;29;20209;-45
2021/04/21 06:10:23;;;;;;;1999.90;999.90;;;;;;;15.37;75.10;-18317.00;4938725;29;20284;-44
2021/04/21 06:13:11;;;;;;;1999.90;999.90;;;;;;;15.85;72.73;-18329.66;4939221;29;20216;-44
2021/04/21 06:15:59;;;;;;;1999.90;999.90;;;;;;;16.09;72.53;-18335.91;4939626;29;20552;-44
2021/04/21 06:18:52;;;;;;;1999.90;999.90;;;;;;;16.26;71.01;-18340.19;4938823;29;20200;-44
2021/04/21 06:21:39;;;;;;;1999.90;999.90;;;;;;;16.90;68.24;-18356.94;4938659;29;20639;-44
2021/04/21 06:24:29;;;;;;;1999.90;999.90;;;;;;;16.04;70.61;-18334.59;4938844;29;20499;-44
2021/04/21 06:27:16;;;;;;;1999.90;999.90;;;;;;;14.63;74.42;-18297.56;4939126;29;20226;-44
2021/04/21 06:30:05;;;;;;;1999.90;999.90;;;;;;;15.57;75.25;-18322.22;4939317;29;20288;-45
2021/04/21 06:32:59;;;;;;;1999.90;999.90;;;;;;;16.61;68.30;-18349.47;4939395;29;20197;-45
2021/04/21 06:35:46;;;;;;;1999.90;999.90;;;;;;;17.56;64.32;-18374.34;4938968;29;20292;-45
2021/04/21 06:38:35;;;;;;;1999.90;999.90;;;;;;;18.10;61.25;-18388.44;4953857;29;20290;-44
2021/04/21 06:41:24;;;;;;;1999.90;999.90;;;;;;;18.45;58.16;-18397.59;4958628;29;20614;-44
2021/04/21 06:44:09;;;;;;;1999.90;999.90;;;;;;;18.40;57.22;-18396.41;4958523;29;20205;-44
2021/04/21 06:46:57;;;;;;;1999.90;999.90;;;;;;;18.99;55.27;-18411.66;4957868;29;20208;-45
2021/04/21 06:49:57;;;;;;;1999.90;999.90;;;;;;;18.69;54.24;-18403.84;4957919;29;20233;-44
2021/04/21 06:52:45;;;;;;;1999.90;999.90;;;;;;;18.54;55.64;-18400.00;4958418;29;20237;-44
2021/04/21 06:55:37;;;;;;;1999.90;999.90;;;;;;;17.93;58.84;-18383.91;4957685;29;20201;-45
2021/04/21 06:58:25;;;;;;;1999.90;999.90;;;;;;;19.39;52.60;-18422.28;4961084;29;20236;-45
2021/04/21 07:01:15;;;;;;;1999.90;999.90;;;;;;;19.86;49.24;-18434.63;4961870;29;20200;-45
2021/04/21 07:04:15;;;;;;;1999.90;999.90;;;;;;;20.60;46.89;-18453.84;4961192;29;20226;-45
2021/04/21 07:07:06;;;;;;;1999.90;999.90;;;;;;;21.40;45.36;-18474.78;4961572;29;20200;-45
2021/04/21 07:09:54;;;;;;;1999.90;999.90;;;;;;;20.68;47.47;-18455.84;4961561;29;20337;-42
2021/04/21 07:12:44;;;;;;;1999.90;999.90;;;;;;;20.79;48.93;-18458.88;4961530;29;20208;-44
2021/04/21 07:15:30;;;;;;;1999.90;999.90;;;;;;;19.08;54.97;-18414.06;4961705;29;20209;-44
2021/04/21 07:18:20;;;;;;;1999.90;999.90;;;;;;;19.79;51.73;-18432.63;4959553;29;20228;-44
2021/04/21 07:21:09;;;;;;;1999.90;999.90;;;;;;;20.46;49.34;-18450.28;4961169;29;20265;-44
2021/04/21 07:23:57;;;;;;;1999.90;999.90;;;;;;;20.86;49.62;-18460.72;4961401;29;20209;-44
2021/04/21 07:26:47;;;;;;;1999.90;999.90;;;;;;;20.58;48.80;-18453.31;4960701;29;20711;-44
2021/04/21 07:29:33;;;;;;;1999.90;999.90;;;;;;;19.56;55.34;-18426.81;4960746;29;20354;-44
2021/04/21 07:32:25;;;;;;;1999.90;999.90;;;;;;;20.63;51.15;-18454.78;4960440;29;20200;-44
2021/04/21 07:35:18;;;;;;;1999.90;999.90;;;;;;;19.93;54.76;-18436.34;4960679;29;20200;-44
2021/04/21 07:38:17;;;;;;;1999.90;999.90;;;;;;;20.09;55.52;-18440.59;4960147;29;20207;-44
2021/04/21 07:41:04;;;;;;;1999.90;999.90;;;;;;;20.23;47.98;-18444.31;4960941;29;20207;-44
2021/04/21 07:43:55;;;;;;;1999.90;999.90;;;;;;;18.44;48.10;-18397.34;4960141;29;20197;-44
2021/04/21 07:46:44;;;;;;;1999.90;999.90;;;;;;;19.06;49.17;-18413.53;4960515;29;20295;-44
2021/04/21 07:49:30;;;;;;;1999.90;999.90;;;;;;;19.36;50.36;-18421.34;4960035;29;20227;-44
2021/04/21 07:52:24;;;;;;;1999.90;999.90;;;;;;;19.29;49.65;-18419.63;4960719;29;20296;-44
2021/04/21 07:55:13;;;;;;;1999.90;999.90;;;;;;;19.09;50.50;-18414.31;4960761;29;20303;-44
2021/04/21 07:58:03;;;;;;;1999.90;999.90;;;;;;;19.91;46.41;-18435.81;4960370;29;20243;-44
2021/04/21 08:01:06;;;;;;;1999.90;999.90;;;;;;;19.59;45.43;-18427.47;4960002;29;20490;-45
2021/04/21 08:03:52;;;;;;;1999.90;999.90;;;;;;;18.33;49.80;-18394.41;4960405;29;20204;-43
2021/04/21 08:06:40;;;;;;;1999.90;999.90;;;;;;;17.95;50.22;-18384.59;4959799;29;20273;-44
2021/04/21 08:09:32;;;;;;;1999.90;999.90;;;;;;;19.26;47.35;-18418.97;4958656;28;20538;-45
2021/04/21 08:12:19;;;;;;;1999.90;999.90;;;;;;;17.78;48.08;-18380.19;4960170;29;20329;-44
2021/04/21 08:15:10;;;;;;;1999.90;999.90;;;;;;;17.34;48.45;-18368.63;4960455;29;20210;-45
2021/04/21 08:17:59;;;;;;;1999.90;999.90;;;;;;;18.48;46.39;-18398.53;4960325;29;20211;-45
2021/04/21 08:20:50;;;;;;;1999.90;999.90;;;;;;;20.31;41.87;-18446.28;4960240;29;20267;-45
2021/04/21 08:24:00;;;;;;;1999.90;999.90;;;;;;;19.78;42.70;-18432.50;4960813;29;20206;-45
2021/04/21 08:26:47;;;;;;;1999.90;999.90;;;;;;;19.64;38.42;-18428.78;4959378;29;20311;-45
2021/04/21 08:29:36;;;;;;;1999.90;999.90;;;;;;;20.01;38.33;-18438.47;4959594;29;20231;-45
2021/04/21 08:32:28;;;;;;;1999.90;999.90;;;;;;;19.16;39.29;-18416.31;4960362;29;20232;-45
2021/04/21 08:35:19;;;;;;;1999.90;999.90;;;;;;;18.66;39.29;-18403.19;4949426;29;20208;-45
2021/04/21 08:38:15;;;;;;;1999.90;999.90;;;;;;;18.04;42.20;-18386.84;4940794;29;20212;-45
2021/04/21 08:41:02;;;;;;;1999.90;999.90;;;;;;;20.00;38.47;-18438.06;4940651;29;20327;-45
2021/04/21 08:43:50;;;;;;;1999.90;999.90;;;;;;;20.68;37.88;-18455.84;4941456;29;20208;-45
2021/04/21 08:46:39;;;;;;;1999.90;999.90;;;;;;;21.09;34.77;-18466.69;4940663;29;20206;-45
2021/04/21 08:49:25;;;;;;;1999.90;999.90;;;;;;;19.57;39.02;-18427.06;4940536;29;20239;-45
2021/04/21 08:52:17;;;;;;;1999.90;999.90;;;;;;;19.86;37.95;-18434.50;4940779;29;20208;-44
2021/04/21 08:55:08;;;;;;;1999.90;999.90;;;;;;;21.52;37.45;-18477.94;4939759;29;20359;-45
2021/04/21 08:57:57;;;;;;;1999.90;999.90;;;;;;;19.13;36.80;-18415.38;4939503;29;20388;-44
2021/04/21 09:00:46;;;;;;;1999.90;999.90;;;;;;;20.79;37.75;-18458.75;4938882;29;20201;-44
2021/04/21 09:03:35;;;;;;;1999.90;999.90;;;;;;;21.15;35.42;-18468.16;4939729;29;20498;-44
2021/04/21 09:06:24;;;;;;;1999.90;999.90;;;;;;;20.67;33.82;-18455.69;4939918;29;20346;-45
2021/04/21 09:09:15;;;;;;;1999.90;999.90;;;;;;;20.30;33.21;-18446.16;4957004;29;20312;-45
2021/04/21 09:12:03;;;;;;;1999.90;999.90;;;;;;;21.69;33.33;-18482.19;4959138;29;20207;-45
2021/04/21 09:14:50;;;;;;;1999.90;999.90;;;;;;;21.52;32.28;-18477.81;4959144;29;20625;-45
2021/04/21 09:17:42;;;;;;;1999.90;999.90;;;;;;;20.33;34.63;-18446.81;4958900;29;20254;-45
2021/04/21 09:20:29;;;;;;;1999.90;999.90;;;;;;;19.81;34.95;-18433.16;4959200;28;20360;-45
2021/04/21 09:23:14;;;;;;;1999.90;999.90;;;;;;;20.83;36.08;-18459.94;4958736;29;20209;-45
2021/04/21 09:26:12;;;;;;;1999.90;999.90;;;;;;;19.69;33.97;-18430.13;4952159;29;20207;-45
2021/04/21 09:28:58;;;;;;;1999.90;999.90;;;;;;;21.19;35.71;-18469.34;4939937;29;20232;-45
2021/04/21 09:31:43;;;;;;;1999.90;999.90;;;;;;;20.91;35.34;-18461.94;4938947;29;20209;-45
2021/04/21 09:34:30;;;;;;;1999.90;999.90;;;;;;;20.84;33.27;-18460.06;4939240;29;20198;-45
2021/04/21 09:37:25;;;;;;;1999.90;999.90;;;;;;;22.54;32.36;-18504.41;4939798;29;20288;-45
2021/04/21 09:40:32;;;;;;;1999.90;999.90;;;;;;;21.00;35.66;-18464.31;4939347;29;20227;-44
2021/04/21 09:43:30;;;;;;;1999.90;999.90;;;;;;;20.63;36.42;-18454.63;4939544;29;20200;-45
2021/04/21 09:46:17;;;;;;;1999.90;999.90;;;;;;;19.91;36.34;-18435.81;4939782;29;20473;-44
2021/04/21 09:49:04;;;;;;;1999.90;999.90;;;;;;;19.29;35.78;-18419.63;4939200;29;20327;-45
2021/04/21 09:51:59;;;;;;;1999.90;999.90;;;;;;;20.48;35.59;-18450.66;4939450;29;20212;-44
2021/04/21 09:54:48;;;;;;;1999.90;999.90;;;;;;;21.32;36.29;-18472.66;4939091;29;20203;-45
2021/04/21 09:57:40;;;;;;;1999.90;999.90;;;;;;;20.71;35.73;-18456.75;4941490;29;20307;-45
2021/04/21 10:00:32;;;;;;;1999.90;999.90;;;;;;;20.31;37.85;-18446.28;4949729;29;20400;-45
2021/04/21 10:03:18;;;;;;;1999.90;999.90;;;;;;;19.68;36.79;-18429.72;4946383;29;20221;-45
2021/04/21 10:06:19;;;;;;;1999.90;999.90;;;;;;;20.67;35.96;-18455.56;4941960;29;20292;-45
2021/04/21 10:09:23;;;;;;;1999.90;999.90;;;;;;;20.77;34.92;-18458.34;4939763;29;20514;-45
2021/04/21 10:12:20;;;;;;;1999.90;999.90;;;;;;;19.30;38.20;-18419.75;4944781;29;20626;-45
2021/04/21 10:15:09;;;;;;;1999.90;999.90;;;;;;;20.48;36.45;-18450.66;4958914;29;20272;-45
2021/04/21 10:17:57;;;;;;;1999.90;999.90;;;;;;;21.26;37.12;-18471.19;4942206;29;20617;-44
2021/04/21 10:20:45;;;;;;;1999.90;999.90;;;;;;;21.13;35.70;-18467.63;4939466;29;20589;-44
2021/04/21 10:23:31;;;;;;;1999.90;999.90;;;;;;;21.08;34.78;-18466.44;4938965;29;20205;-44
2021/04/21 10:26:19;;;;;;;1999.90;999.90;;;;;;;21.10;36.29;-18466.81;4939287;29;20207;-44
2021/04/21 10:29:07;;;;;;;1999.90;999.90;;;;;;;20.57;37.21;-18453.19;4939189;29;20236;-44
2021/04/21 10:31:54;;;;;;;1999.90;999.90;;;;;;;20.80;36.24;-18459.16;4937779;29;20632;-44
2021/04/21 10:34:44;;;;;;;1999.90;999.90;;;;;;;20.97;36.88;-18463.66;4938904;29;20208;-44
2021/04/21 10:37:34;;;;;;;1999.90;999.90;;;;;;;20.05;37.50;-18439.53;4938663;29;20204;-45
2021/04/21 10:40:26;;;;;;;1999.90;999.90;;;;;;;20.67;36.10;-18455.69;4938546;29;20210;-45
2021/04/21 10:43:12;;;;;;;1999.90;999.90;;;;;;;20.42;37.38;-18449.06;4947968;29;20206;-44
2021/04/21 10:46:02;;;;;;;1999.90;999.90;;;;;;;20.69;35.70;-18456.22;4939224;29;20483;-44
2021/04/21 10:48:49;;;;;;;1999.90;999.90;;;;;;;20.39;36.56;-18448.28;4952664;29;21087;-45
2021/04/21 10:51:38;;;;;;;1999.90;999.90;;;;;;;21.51;39.48;-18477.69;4951201;29;20208;-44
2021/04/21 10:54:33;;;;;;;1999.90;999.90;;;;;;;21.56;36.98;-18479.00;4938591;29;20600;-44
2021/04/21 10:57:36;;;;;;;1999.90;999.90;;;;;;;22.18;36.52;-18495.16;4944339;29;20284;-44
2021/04/21 11:00:29;;;;;;;1999.90;999.90;;;;;;;22.28;36.01;-18497.81;4948238;29;20208;-45
2021/04/21 11:03:20;;;;;;;1999.90;999.90;;;;;;;20.85;36.53;-18460.34;4937404;29;20205;-44
2021/04/21 11:06:05;;;;;;;1999.90;999.90;;;;;;;21.11;37.75;-18467.09;4943004;29;20228;-44
2021/04/21 11:08:56;;;;;;;1999.90;999.90;;;;;;;20.14;38.83;-18441.78;4938723;29;20377;-44
2021/04/21 11:11:47;;;;;;;1999.90;999.90;;;;;;;20.37;39.00;-18447.75;4941871;29;20210;-33
2021/04/21 11:15:01;;;;;;;1999.90;999.90;;;;;;;21.43;38.25;-18475.56;4957643;29;20272;-32
2021/04/21 11:18:15;;;;;;;1999.90;999.90;;;;;;;22.39;35.16;-18500.44;4935632;29;20206;-38
2021/04/21 11:21:06;;;;;;;1999.90;999.90;;;;;;;22.00;36.01;-18490.41;4944583;29;20203;-37
2021/04/21 11:24:08;;;;;;;1999.90;999.90;;;;;;;21.54;38.94;-18478.47;4956727;29;20307;-33
2021/04/21 11:26:57;;;;;;;1999.90;999.90;;;;;;;19.82;38.12;-18433.56;4954916;29;20704;-36
2021/04/21 11:29:43;;;;;;;1999.90;999.90;;;;;;;20.15;39.72;-18442.19;4938070;29;20210;-33
2021/04/21 11:32:40;;;;;;;1999.90;999.90;;;;;;;21.02;39.84;-18464.72;4942886;29;20289;-36
2021/04/21 11:35:32;;;;;;;1999.90;999.90;;;;;;;19.45;39.70;-18423.88;4949637;29;20206;-35
2021/04/21 11:38:42;;;;;;;1999.90;999.90;;;;;;;19.27;40.25;-18419.09;4953316;29;20328;-32
2021/04/21 11:41:46;;;;;;;1999.90;999.90;;;;;;;19.10;40.76;-18414.59;4945974;29;20223;-37
2021/04/21 11:44:59;;;;;;;1999.90;999.90;;;;;;;19.87;41.77;-18434.75;4941477;29;20895;-35
2021/04/21 11:47:49;;;;;;;1999.90;999.90;;;;;;;19.83;39.87;-18433.69;4955387;29;20317;-33
2021/04/21 11:50:41;;;;;;;1999.90;999.90;;;;;;;20.08;39.79;-18440.19;4956287;29;20260;-36
2021/04/21 11:53:32;;;;;;;1999.90;999.90;;;;;;;21.23;38.50;-18470.28;4940410;29;20205;-39
2021/04/21 11:56:19;;;;;;;1999.90;999.90;;;;;;;19.69;38.93;-18429.97;4941274;29;21279;-36
2021/04/21 11:59:08;;;;;;;1999.90;999.90;;;;;;;21.52;38.71;-18477.94;4957549;29;20713;-38
2021/04/21 12:01:54;;;;;;;1999.90;999.90;;;;;;;21.27;37.44;-18471.47;4945655;29;20491;-39
2021/04/21 12:04:44;;;;;;;1999.90;999.90;;;;;;;19.93;38.32;-18436.47;4941607;29;20484;-37
2021/04/21 12:07:29;;;;;;;1999.90;999.90;;;;;;;19.47;39.63;-18424.28;4941447;29;20338;-36
2021/04/21 12:10:18;;;;;;;1999.90;999.90;;;;;;;19.31;39.68;-18420.16;4940774;29;20225;-34
2021/04/21 12:13:29;;;;;;;1999.90;999.90;;;;;;;19.41;41.84;-18422.81;4940567;29;20611;-37
2021/04/21 12:16:20;;;;;;;1999.90;999.90;;;;;;;19.23;41.69;-18418.19;4940461;29;20360;-38
2021/04/21 12:19:12;;;;;;;1999.90;999.90;;;;;;;20.38;39.33;-18448.16;4940146;29;20205;-34
2021/04/21 12:22:02;;;;;;;1999.90;999.90;;;;;;;21.05;38.08;-18465.63;4939788;29;20208;-35
2021/04/21 12:24:47;;;;;;;1999.90;999.90;;;;;;;21.22;39.54;-18470.00;4939817;29;20203;-37
2021/04/21 12:27:34;;;;;;;1999.90;999.90;;;;;;;20.03;39.17;-18439.00;4940001;29;20548;-38
2021/04/21 12:30:23;;;;;;;1999.90;999.90;;;;;;;20.93;40.32;-18462.47;4940163;29;20352;-35
2021/04/21 12:33:35;;;;;;;1999.90;999.90;;;;;;;21.75;38.32;-18483.78;4940324;29;20196;-33
2021/04/21 12:36:26;;;;;;;1999.90;999.90;;;;;;;21.58;37.64;-18479.41;4940253;29;20204;-37
2021/04/21 12:39:17;;;;;;;1999.90;999.90;;;;;;;20.41;39.83;-18448.94;4940280;29;20233;-36
2021/04/21 12:42:10;;;;;;;1999.90;999.90;;;;;;;20.31;39.91;-18446.28;4939517;29;20693;-37